createdAt,value
2022-12-14T00:01:28.018Z,-4.17
2022-12-14T00:03:56.294Z,-4.14
2022-12-14T00:06:26.871Z,-4.03
2022-12-14T00:08:57.375Z,-3.96
2022-12-14T00:11:24.703Z,-3.92
2022-12-14T00:13:55.020Z,-3.72
2022-12-14T00:16:23.120Z,-3.68
2022-12-14T00:18:53.306Z,-3.53
2022-12-14T00:21:20.705Z,-3.54
2022-12-14T00:23:50.295Z,-3.51
2022-12-14T00:26:21.711Z,-3.61
2022-12-14T00:28:50.896Z,-3.60
2022-12-14T00:31:17.763Z,-3.54
2022-12-14T00:33:45.156Z,-3.54
2022-12-14T00:36:13.436Z,-3.55
2022-12-14T00:38:41.122Z,-3.57
2022-12-14T00:41:08.782Z,-3.50
2022-12-14T00:43:35.708Z,-3.51
2022-12-14T00:46:02.349Z,-3.52
2022-12-14T00:48:29.946Z,-3.44
2022-12-14T00:50:57.635Z,-3.56
2022-12-14T00:53:24.578Z,-3.40
2022-12-14T00:55:51.521Z,-3.59
2022-12-14T00:58:22.487Z,-3.47
2022-12-14T01:01:04.441Z,-3.39
2022-12-14T01:03:31.822Z,-3.36
2022-12-14T01:05:58.803Z,-3.32
2022-12-14T01:08:25.412Z,-3.26
2022-12-14T01:10:53.053Z,-3.25
2022-12-14T01:13:19.543Z,-3.15
2022-12-14T01:15:46.860Z,-3.08
2022-12-14T01:18:13.534Z,-3.02
2022-12-14T01:20:40.017Z,-3.06
2022-12-14T01:23:06.657Z,-3.09
2022-12-14T01:25:33.173Z,-3.06
2022-12-14T01:27:59.687Z,-3.00
2022-12-14T01:30:26.180Z,-2.94
2022-12-14T01:32:52.729Z,-3.08
2022-12-14T01:35:19.169Z,-3.03
2022-12-14T01:37:45.636Z,-3.03
2022-12-14T01:40:15.695Z,-3.07
2022-12-14T01:42:42.195Z,-3.09
2022-12-14T01:45:20.117Z,-3.02
2022-12-14T01:47:55.910Z,-3.15
2022-12-14T01:50:31.564Z,-3.12
2022-12-14T01:53:05.213Z,-3.04
2022-12-14T01:55:41.675Z,-2.94
2022-12-14T01:58:24.772Z,-3.03
2022-12-14T02:00:59.317Z,-3.02
2022-12-14T02:03:38.456Z,-2.93
2022-12-14T02:06:11.781Z,-2.84
2022-12-14T02:08:41.805Z,-2.87
2022-12-14T02:11:08.297Z,-2.82
2022-12-14T02:13:40.498Z,-2.74
2022-12-14T02:16:07.644Z,-2.75
2022-12-14T02:18:34.382Z,-2.73
2022-12-14T02:21:21.445Z,-2.73
2022-12-14T02:24:45.929Z,-2.78
2022-12-14T02:27:54.404Z,-2.77
2022-12-14T02:30:28.139Z,-2.92
2022-12-14T02:33:40.933Z,-2.92
2022-12-14T02:36:51.701Z,-2.88
2022-12-14T02:39:41.028Z,-2.89
2022-12-14T02:42:17.050Z,-2.93
2022-12-14T02:45:25.909Z,-3.04
2022-12-14T02:48:01.501Z,-3.18
2022-12-14T02:50:44.164Z,-3.16
2022-12-14T02:53:29.247Z,-3.22
2022-12-14T02:56:04.086Z,-3.31
2022-12-14T02:58:40.555Z,-3.22
2022-12-14T03:01:16.526Z,-3.24
2022-12-14T03:03:43.139Z,-3.29
2022-12-14T03:06:25.833Z,-3.41
2022-12-14T03:09:04.805Z,-3.47
2022-12-14T03:11:45.778Z,-3.48
2022-12-14T03:14:27.185Z,-3.36
2022-12-14T03:16:56.891Z,-3.25
2022-12-14T03:19:38.774Z,-3.16
2022-12-14T03:22:20.300Z,-2.94
2022-12-14T03:24:53.981Z,-3.06
2022-12-14T03:27:30.375Z,-3.09
2022-12-14T03:30:07.667Z,-3.06
2022-12-14T03:32:40.357Z,-2.96
2022-12-14T03:35:16.179Z,-3.02
2022-12-14T03:37:56.492Z,-3.04
2022-12-14T03:41:10.043Z,-3.09
2022-12-14T03:44:07.382Z,-3.12
2022-12-14T03:46:49.289Z,-3.05
2022-12-14T03:49:46.496Z,-2.92
2022-12-14T03:52:26.373Z,-2.93
2022-12-14T03:55:59.015Z,-2.88
2022-12-14T03:58:56.893Z,-2.94
2022-12-14T04:01:41.332Z,-2.84
2022-12-14T04:04:38.709Z,-2.93
2022-12-14T04:07:24.470Z,-2.85
2022-12-14T04:10:27.993Z,-2.85
2022-12-14T04:13:24.790Z,-2.81
2022-12-14T04:16:15.757Z,-2.98
2022-12-14T04:19:00.283Z,-2.87
2022-12-14T04:21:47.919Z,-2.98
2022-12-14T04:24:44.847Z,-3.41
2022-12-14T04:27:23.699Z,-3.15
2022-12-14T04:29:57.651Z,-3.08
2022-12-14T04:32:33.645Z,-2.95
2022-12-14T04:35:22.117Z,-2.96
2022-12-14T04:37:57.603Z,-2.97
2022-12-14T04:40:36.381Z,-2.85
2022-12-14T04:43:13.966Z,-2.73
2022-12-14T04:45:51.068Z,-2.80
2022-12-14T04:48:32.069Z,-2.86
2022-12-14T04:51:12.495Z,-2.79
2022-12-14T04:53:43.298Z,-2.72
2022-12-14T04:56:43.708Z,-2.77
2022-12-14T04:59:10.385Z,-2.75
2022-12-14T05:02:04.676Z,-2.76
2022-12-14T05:05:05.231Z,-2.68
2022-12-14T05:07:52.549Z,-2.87
2022-12-14T05:10:42.358Z,-2.83
2022-12-14T05:13:18.396Z,-2.92
2022-12-14T05:15:54.091Z,-2.85
2022-12-14T05:18:22.201Z,-2.72
2022-12-14T05:20:49.316Z,-2.70
2022-12-14T05:23:16.951Z,-2.67
2022-12-14T05:25:44.067Z,-2.61
2022-12-14T05:28:11.744Z,-2.64
2022-12-14T05:30:38.802Z,-2.59
2022-12-14T05:33:05.653Z,-2.58
2022-12-14T05:35:32.110Z,-2.61
2022-12-14T05:37:58.681Z,-2.59
2022-12-14T05:40:25.196Z,-2.66
2022-12-14T05:42:55.762Z,-2.59
2022-12-14T05:45:22.591Z,-2.54
2022-12-14T05:47:49.074Z,-2.52
2022-12-14T05:50:15.689Z,-2.49
2022-12-14T05:52:42.165Z,-2.47
2022-12-14T05:55:09.511Z,-2.42
2022-12-14T05:57:35.995Z,-2.42
2022-12-14T06:00:04.871Z,-2.43
2022-12-14T06:02:31.604Z,-2.40
2022-12-14T06:04:58.093Z,-2.43
2022-12-14T06:07:27.761Z,-2.51
2022-12-14T06:09:54.864Z,-2.51
2022-12-14T06:12:21.316Z,-2.61
2022-12-14T06:14:47.806Z,-2.47
2022-12-14T06:17:14.344Z,-2.46
2022-12-14T06:19:40.779Z,-2.40
2022-12-14T06:22:07.246Z,-2.51
2022-12-14T06:24:33.788Z,-2.44
2022-12-14T06:27:00.324Z,-2.47
2022-12-14T06:29:26.893Z,-2.45
2022-12-14T06:31:53.432Z,-2.66
2022-12-14T06:34:24.795Z,-2.72
2022-12-14T06:36:54.754Z,-2.68
2022-12-14T06:39:21.220Z,-2.54
2022-12-14T06:41:51.436Z,-2.44
2022-12-14T06:44:18.201Z,-2.42
2022-12-14T06:46:44.889Z,-2.46
2022-12-14T06:49:15.251Z,-2.44
2022-12-14T06:51:42.723Z,-2.41
2022-12-14T06:54:12.284Z,-2.35
2022-12-14T06:56:39.300Z,-2.41
2022-12-14T06:59:05.831Z,-2.32
2022-12-14T07:01:32.672Z,-2.46
2022-12-14T07:04:00.138Z,-2.47
2022-12-14T07:06:31.424Z,-2.40
2022-12-14T07:08:59.909Z,-2.34
2022-12-14T07:11:29.182Z,-2.43
2022-12-14T07:14:00.506Z,-2.39
2022-12-14T07:16:29.227Z,-2.30
2022-12-14T07:18:56.603Z,-2.27
2022-12-14T07:21:24.238Z,-2.24
2022-12-14T07:23:52.310Z,-2.15
2022-12-14T07:26:25.951Z,-2.09
2022-12-14T07:28:54.016Z,-2.02
2022-12-14T07:31:24.642Z,-1.99
2022-12-14T07:34:00.216Z,-2.07
2022-12-14T07:36:29.546Z,-2.02
2022-12-14T07:38:57.245Z,-2.03
2022-12-14T07:41:30.650Z,-2.01
2022-12-14T07:44:00.471Z,-1.98
2022-12-14T07:46:30.083Z,-2.02
2022-12-14T07:48:58.345Z,-1.90
2022-12-14T07:51:31.577Z,-1.92
2022-12-14T07:53:59.555Z,-1.92
2022-12-14T07:56:31.286Z,-1.93
2022-12-14T07:59:00.373Z,-1.91
2022-12-14T08:01:33.838Z,-1.99
2022-12-14T08:04:12.417Z,-1.93
2022-12-14T08:06:40.216Z,-1.78
2022-12-14T08:09:09.262Z,-1.78
2022-12-14T08:11:37.612Z,-1.82
2022-12-14T08:14:08.703Z,-1.81
2022-12-14T08:16:35.353Z,-1.73
2022-12-14T08:19:01.970Z,-1.75
2022-12-14T08:21:29.567Z,-1.92
2022-12-14T08:23:57.307Z,-2.00
2022-12-14T08:26:31.628Z,-2.03
2022-12-14T08:29:01.627Z,-1.96
2022-12-14T08:31:28.577Z,-1.84
2022-12-14T08:33:55.554Z,-1.76
2022-12-14T08:36:29.041Z,-1.76
2022-12-14T08:39:07.998Z,-1.77
2022-12-14T08:41:34.943Z,-1.75
2022-12-14T08:44:03.779Z,-1.74
2022-12-14T08:46:35.155Z,-1.85
2022-12-14T08:49:01.930Z,-1.83
2022-12-14T08:51:29.419Z,-1.83
2022-12-14T08:53:57.046Z,-1.85
2022-12-14T08:56:27.795Z,-1.82
2022-12-14T08:58:55.377Z,-1.76
2022-12-14T09:01:32.411Z,-1.79
2022-12-14T09:04:06.358Z,-1.72
2022-12-14T09:06:37.172Z,-1.84
2022-12-14T09:09:10.451Z,-1.70
2022-12-14T09:11:41.964Z,-1.68
2022-12-14T09:14:08.568Z,-1.57
2022-12-14T09:16:35.249Z,-1.55
2022-12-14T09:19:01.859Z,-1.57
2022-12-14T09:21:28.919Z,-1.70
2022-12-14T09:23:59.194Z,-1.64
2022-12-14T09:26:27.048Z,-1.59
2022-12-14T09:28:56.685Z,-1.61
2022-12-14T09:31:27.181Z,-1.62
2022-12-14T09:33:54.870Z,-1.58
2022-12-14T09:36:26.465Z,-1.63
2022-12-14T09:38:58.232Z,-1.79
2022-12-14T09:41:34.009Z,-1.75
2022-12-14T09:44:54.874Z,-1.76
2022-12-14T09:47:38.246Z,-1.72
2022-12-14T09:50:12.348Z,-1.62
2022-12-14T09:52:51.864Z,-1.56
2022-12-14T09:55:39.297Z,-1.51
2022-12-14T09:58:17.807Z,-1.37
2022-12-14T10:00:55.267Z,-1.44
2022-12-14T10:03:36.441Z,-1.40
2022-12-14T10:06:11.915Z,-1.25
2022-12-14T10:09:09.936Z,-1.19
2022-12-14T10:11:49.152Z,-1.25
2022-12-14T10:14:46.600Z,-1.20
2022-12-14T10:18:00.525Z,-1.25
2022-12-14T10:20:42.819Z,-1.22
2022-12-14T10:23:22.730Z,-1.12
2022-12-14T10:25:57.381Z,-1.02
2022-12-14T10:28:48.389Z,-0.96
2022-12-14T10:31:28.514Z,-1.00
2022-12-14T10:34:13.186Z,-0.97
2022-12-14T10:36:53.174Z,-0.80
2022-12-14T10:40:13.752Z,-0.75
2022-12-14T10:43:13.662Z,-0.76
2022-12-14T10:45:55.819Z,-0.69
2022-12-14T10:48:47.995Z,-0.66
2022-12-14T10:51:22.588Z,-0.68
2022-12-14T10:54:05.933Z,-0.70
2022-12-14T10:56:35.823Z,-0.84
2022-12-14T10:59:39.282Z,-0.91
2022-12-14T11:02:17.395Z,-0.79
2022-12-14T11:04:57.443Z,-0.79
2022-12-14T11:07:39.817Z,-0.62
2022-12-14T11:10:23.903Z,-0.40
2022-12-14T11:13:13.732Z,-0.56
2022-12-14T11:15:50.816Z,-0.52
2022-12-14T11:18:17.365Z,-0.47
2022-12-14T11:20:57.319Z,-0.56
2022-12-14T11:23:40.800Z,-0.62
2022-12-14T11:26:15.325Z,-0.49
2022-12-14T11:28:54.616Z,-0.40
2022-12-14T11:31:21.075Z,-0.21
2022-12-14T11:33:54.184Z,-0.07
2022-12-14T11:36:39.369Z,-0.08
2022-12-14T11:39:12.852Z,0.04
2022-12-14T11:41:45.329Z,0.02
2022-12-14T11:44:26.615Z,-0.04
2022-12-14T11:46:58.988Z,0.06
2022-12-14T11:49:40.452Z,0.13
2022-12-14T11:52:25.170Z,0.09
2022-12-14T11:55:03.576Z,0.13
2022-12-14T11:57:55.185Z,0.19
2022-12-14T12:00:30.825Z,0.12
2022-12-14T12:03:16.051Z,0.06
2022-12-14T12:05:44.605Z,0.19
2022-12-14T12:08:28.398Z,0.30
2022-12-14T12:11:05.773Z,0.05
2022-12-14T12:13:35.036Z,0.00
2022-12-14T12:16:13.529Z,0.01
2022-12-14T12:19:14.601Z,0.08
2022-12-14T12:21:44.811Z,0.13
2022-12-14T12:24:38.825Z,0.16
2022-12-14T12:27:18.871Z,0.29
2022-12-14T12:30:02.825Z,0.39
2022-12-14T12:33:05.522Z,0.30
2022-12-14T12:35:50.722Z,0.34
2022-12-14T12:38:29.434Z,0.37
2022-12-14T12:41:08.026Z,0.29
2022-12-14T12:43:50.179Z,0.27
2022-12-14T12:46:22.246Z,0.11
2022-12-14T12:49:05.866Z,0.04
2022-12-14T12:51:51.231Z,0.02
2022-12-14T12:54:35.846Z,0.07
2022-12-14T12:57:06.329Z,0.17
2022-12-14T12:59:53.623Z,0.05
2022-12-14T13:02:35.166Z,0.03
2022-12-14T13:05:44.527Z,0.16
2022-12-14T13:08:12.348Z,0.26
2022-12-14T13:11:02.323Z,0.37
2022-12-14T13:13:36.815Z,0.42
2022-12-14T13:16:36.724Z,0.47
2022-12-14T13:19:50.360Z,0.55
2022-12-14T13:22:30.428Z,0.61
2022-12-14T13:25:06.451Z,0.58
2022-12-14T13:27:49.179Z,0.58
2022-12-14T13:31:03.672Z,0.35
2022-12-14T13:33:56.677Z,0.42
2022-12-14T13:36:51.750Z,0.58
2022-12-14T13:39:40.383Z,0.55
2022-12-14T13:42:41.688Z,0.66
2022-12-14T13:45:20.244Z,0.46
2022-12-14T13:47:55.371Z,0.43
2022-12-14T13:50:55.899Z,0.42
2022-12-14T13:53:43.213Z,0.49
2022-12-14T13:56:32.623Z,0.52
2022-12-14T13:59:06.155Z,0.56
2022-12-14T14:01:48.085Z,0.61
2022-12-14T14:04:21.014Z,0.80
2022-12-14T14:06:56.573Z,0.82
2022-12-14T14:09:25.735Z,0.59
2022-12-14T14:12:24.406Z,0.53
2022-12-14T14:15:00.331Z,0.53
2022-12-14T14:17:41.419Z,0.27
2022-12-14T14:20:35.911Z,0.26
2022-12-14T14:23:14.557Z,0.36
2022-12-14T14:25:49.825Z,0.48
2022-12-14T14:28:23.008Z,0.59
2022-12-14T14:30:57.333Z,0.65
2022-12-14T14:33:48.357Z,0.62
2022-12-14T14:36:36.805Z,0.63
2022-12-14T14:39:38.709Z,0.59
2022-12-14T14:42:04.453Z,0.56
2022-12-14T14:44:48.425Z,0.57
2022-12-14T14:47:35.596Z,0.58
2022-12-14T14:50:18.073Z,0.25
2022-12-14T14:52:58.586Z,0.41
2022-12-14T14:55:53.113Z,0.40
2022-12-14T14:58:34.318Z,0.41
2022-12-14T15:01:27.998Z,0.40
2022-12-14T15:04:21.549Z,0.34
2022-12-14T15:06:57.241Z,0.39
2022-12-14T15:09:41.061Z,0.38
2022-12-14T15:12:28.808Z,0.39
2022-12-14T15:15:01.867Z,0.33
2022-12-14T15:17:28.642Z,0.30
2022-12-14T15:20:02.023Z,0.21
2022-12-14T15:22:43.120Z,0.15
2022-12-14T15:25:33.044Z,0.11
2022-12-14T15:28:14.130Z,0.08
2022-12-14T15:30:47.911Z,0.05
2022-12-14T15:33:29.398Z,-0.05
2022-12-14T15:36:05.440Z,-0.23
2022-12-14T15:38:35.579Z,-0.19
2022-12-14T15:41:15.508Z,-0.32
2022-12-14T15:43:48.365Z,-0.34
2022-12-14T15:46:40.179Z,-0.35
2022-12-14T15:49:10.801Z,-0.43
2022-12-14T15:51:44.135Z,-0.45
2022-12-14T15:54:25.065Z,-0.67
2022-12-14T15:56:56.724Z,-0.55
2022-12-14T15:59:35.884Z,-0.58
2022-12-14T16:02:17.278Z,-0.63
2022-12-14T16:04:45.021Z,-0.65
2022-12-14T16:07:21.566Z,-0.69
2022-12-14T16:09:56.840Z,-0.60
2022-12-14T16:12:49.628Z,-0.59
2022-12-14T16:15:24.613Z,-0.61
2022-12-14T16:18:00.976Z,-0.57
2022-12-14T16:20:32.896Z,-0.50
2022-12-14T16:23:05.866Z,-0.42
2022-12-14T16:25:37.257Z,-0.38
2022-12-14T16:28:39.440Z,-0.35
2022-12-14T16:31:11.509Z,-0.32
2022-12-14T16:33:41.941Z,-0.33
2022-12-14T16:36:20.289Z,-0.33
2022-12-14T16:39:14.629Z,-0.51
2022-12-14T16:41:52.396Z,-0.44
2022-12-14T16:44:24.070Z,-0.37
2022-12-14T16:47:03.071Z,-0.30
2022-12-14T16:49:39.133Z,-0.22
2022-12-14T16:52:26.265Z,-0.46
2022-12-14T16:55:17.056Z,-0.45
2022-12-14T16:57:49.298Z,-0.38
2022-12-14T17:00:33.778Z,-0.34
2022-12-14T17:03:17.335Z,-0.28
2022-12-14T17:05:53.518Z,-0.24
2022-12-14T17:08:20.086Z,-0.42
2022-12-14T17:10:46.702Z,-0.51
2022-12-14T17:13:13.256Z,-0.44
2022-12-14T17:16:06.057Z,-0.62
2022-12-14T17:18:39.055Z,-0.57
2022-12-14T17:21:08.512Z,-0.39
2022-12-14T17:23:39.973Z,-0.32
2022-12-14T17:26:06.473Z,-0.39
2022-12-14T17:28:34.514Z,-0.37
2022-12-14T17:31:03.040Z,-0.49
2022-12-14T17:33:31.795Z,-0.53
2022-12-14T17:35:58.857Z,-0.42
2022-12-14T17:38:25.913Z,-0.35
2022-12-14T17:40:53.851Z,-0.35
2022-12-14T17:43:26.620Z,-0.30
2022-12-14T17:45:54.445Z,-0.31
2022-12-14T17:48:21.380Z,-0.27
2022-12-14T17:50:49.917Z,-0.24
2022-12-14T17:53:26.979Z,-0.21
2022-12-14T17:55:53.972Z,-0.22
2022-12-14T17:58:20.503Z,-0.18
2022-12-14T18:01:03.197Z,-0.15
2022-12-14T18:03:36.064Z,-0.15
2022-12-14T18:06:04.514Z,-0.26
2022-12-14T18:08:31.106Z,-0.27
2022-12-14T18:11:02.569Z,-0.28
2022-12-14T18:13:31.744Z,-0.26
2022-12-14T18:15:59.962Z,-0.53
2022-12-14T18:18:29.295Z,-0.49
2022-12-14T18:21:01.780Z,-0.42
2022-12-14T18:23:30.734Z,-0.47
2022-12-14T18:25:59.925Z,-0.55
2022-12-14T18:28:26.729Z,-0.53
2022-12-14T18:30:59.442Z,-0.72
2022-12-14T18:33:28.666Z,-0.82
2022-12-14T18:35:57.129Z,-0.87
2022-12-14T18:38:24.646Z,-0.82
2022-12-14T18:40:55.162Z,-0.63
2022-12-14T18:43:26.025Z,-0.68
2022-12-14T18:45:54.848Z,-0.95
2022-12-14T18:48:23.279Z,-1.02
2022-12-14T18:50:53.657Z,-1.08
2022-12-14T18:53:23.131Z,-0.94
2022-12-14T18:55:50.383Z,-0.73
2022-12-14T18:58:24.463Z,-0.75
2022-12-14T19:00:55.430Z,-0.67
2022-12-14T19:03:23.883Z,-0.64
2022-12-14T19:05:51.255Z,-0.63
2022-12-14T19:08:18.408Z,-0.52
2022-12-14T19:10:48.211Z,-0.46
2022-12-14T19:13:25.334Z,-0.35
2022-12-14T19:15:52.599Z,-0.39
2022-12-14T19:18:19.234Z,-0.35
2022-12-14T19:20:45.841Z,-0.35
2022-12-14T19:23:18.403Z,-0.30
2022-12-14T19:25:45.528Z,-0.22
2022-12-14T19:28:31.462Z,-0.16
2022-12-14T19:31:00.542Z,-0.26
2022-12-14T19:33:27.770Z,-0.18
2022-12-14T19:35:54.714Z,-0.28
2022-12-14T19:38:21.351Z,-0.29
2022-12-14T19:41:11.487Z,-0.33
2022-12-14T19:43:38.399Z,-0.30
2022-12-14T19:46:07.601Z,-0.32
2022-12-14T19:48:34.284Z,-0.28
2022-12-14T19:51:14.355Z,-0.28
2022-12-14T19:53:44.316Z,-0.29
2022-12-14T19:56:14.760Z,-0.28
2022-12-14T19:58:41.478Z,-0.20
2022-12-14T20:01:13.499Z,-0.19
2022-12-14T20:03:40.526Z,-0.40
2022-12-14T20:06:08.308Z,-0.56
2022-12-14T20:08:36.182Z,-0.67
2022-12-14T20:11:09.110Z,-0.81
2022-12-14T20:13:36.127Z,-0.83
2022-12-14T20:16:02.677Z,-0.81
2022-12-14T20:18:31.458Z,-0.65
2022-12-14T20:21:05.465Z,-0.58
2022-12-14T20:23:37.282Z,-0.47
2022-12-14T20:26:09.216Z,-0.47
2022-12-14T20:28:36.116Z,-0.50
2022-12-14T20:31:07.056Z,-0.62
2022-12-14T20:33:34.753Z,-0.79
2022-12-14T20:36:02.228Z,-0.89
2022-12-14T20:38:28.975Z,-0.80
2022-12-14T20:40:55.557Z,-0.79
2022-12-14T20:43:22.047Z,-0.85
2022-12-14T20:45:48.530Z,-0.74
2022-12-14T20:48:14.957Z,-0.75
2022-12-14T20:50:44.043Z,-0.75
2022-12-14T20:53:15.953Z,-0.86
2022-12-14T20:55:42.736Z,-0.88
2022-12-14T20:58:09.249Z,-0.81
2022-12-14T21:00:37.279Z,-0.75
2022-12-14T21:03:05.134Z,-0.71
2022-12-14T21:05:31.917Z,-0.68
2022-12-14T21:07:58.412Z,-0.86
2022-12-14T21:10:24.894Z,-1.01
2022-12-14T21:12:51.424Z,-0.96
2022-12-14T21:15:17.881Z,-1.04
2022-12-14T21:17:44.662Z,-1.29
2022-12-14T21:20:12.310Z,-1.30
2022-12-14T21:22:39.050Z,-1.19
2022-12-14T21:25:07.471Z,-1.17
2022-12-14T21:27:38.993Z,-1.15
2022-12-14T21:30:08.476Z,-1.12
2022-12-14T21:32:37.486Z,-1.17
2022-12-14T21:35:05.768Z,-1.18
2022-12-14T21:37:32.339Z,-1.07
2022-12-14T21:39:58.886Z,-1.05
2022-12-14T21:42:26.422Z,-1.00
2022-12-14T21:44:54.298Z,-0.97
2022-12-14T21:47:29.540Z,-1.11
2022-12-14T21:49:57.158Z,-1.07
2022-12-14T21:52:27.555Z,-0.96
2022-12-14T21:54:54.515Z,-0.89
2022-12-14T21:57:49.592Z,-0.93
2022-12-14T22:00:17.711Z,-0.90
2022-12-14T22:02:44.286Z,-0.88
2022-12-14T22:05:11.020Z,-0.94
2022-12-14T22:07:37.695Z,-0.94
2022-12-14T22:10:05.408Z,-0.85
2022-12-14T22:12:31.937Z,-0.93
2022-12-14T22:14:58.389Z,-0.96
2022-12-14T22:17:25.114Z,-1.07
2022-12-14T22:19:54.095Z,-1.20
2022-12-14T22:22:20.593Z,-1.26
2022-12-14T22:24:50.966Z,-1.49
2022-12-14T22:27:17.618Z,-1.45
2022-12-14T22:29:44.091Z,-1.29
2022-12-14T22:32:14.528Z,-1.23
2022-12-14T22:34:41.117Z,-1.21
2022-12-14T22:37:07.864Z,-1.38
2022-12-14T22:39:34.728Z,-1.39
2022-12-14T22:42:01.214Z,-1.36
2022-12-14T22:44:27.913Z,-1.25
2022-12-14T22:46:54.425Z,-1.23
2022-12-14T22:49:21.069Z,-1.40
2022-12-14T22:51:47.608Z,-1.42
2022-12-14T22:54:25.384Z,-1.49
2022-12-14T22:57:06.077Z,-1.59
2022-12-14T22:59:51.375Z,-1.67
2022-12-14T23:02:18.123Z,-1.47
2022-12-14T23:04:44.761Z,-1.40
2022-12-14T23:07:11.390Z,-1.42
2022-12-14T23:09:56.724Z,-1.43
2022-12-14T23:12:42.099Z,-1.50
2022-12-14T23:15:28.282Z,-1.59
2022-12-14T23:18:19.409Z,-1.60
2022-12-14T23:21:04.625Z,-1.65
2022-12-14T23:23:49.944Z,-1.71
2022-12-14T23:26:35.260Z,-1.75
2022-12-14T23:29:20.557Z,-1.79
2022-12-14T23:32:05.701Z,-1.91
2022-12-14T23:34:50.855Z,-1.89
2022-12-14T23:37:35.993Z,-2.00
2022-12-14T23:40:21.333Z,-2.10
2022-12-14T23:43:06.655Z,-2.11
2022-12-14T23:45:51.900Z,-1.95
2022-12-14T23:48:37.322Z,-1.95
2022-12-14T23:51:22.486Z,-1.92
2022-12-14T23:54:07.818Z,-1.91
2022-12-14T23:56:54.022Z,-1.91
2022-12-14T23:59:39.371Z,-1.84
